Topeka, Indiana
Current Conditions -  °F | °C
As of 8:22 AM on Saturday 25 Oct 2014 (Local Time) from KGSH Reporting Station
Haze Haze  
Wind Chill: 52°   Ceiling: Unl
Heat Index: 52°   Visibility: 3mi
Dew Point: 50°   Wind: 6mph
Humidity: 93%   Direction: 230°SW
Pressure: 29.9"   Gusts: NA
Location:  41.54°N, 85.54°W
Report Text: KGSH 251222Z AUTO 23005KT 3SM BR SCT011 11/10 A2990 RMK AO2 T01110100
Loading
Personal Weather Stations






























Interactive Weather Map
Tropical Storm Tracking
New forecast layout! Learn more

10-Day Weather Forecast

Advertisements
Track Severe Weather on mobile